Time;durP1;ratioP1;P1;durP2;ratioP2;P2;SDS_P1;SDS_P2;PMS_P1;PMS_P2;Temp;Humidity;BMP_temperature;BMP_pressure;BME280_temperature;BME280_humidity;BME280_pressure;Samples;Min_cycle;Max_cycle;Signal;HPM_P1;HPM_P2
2022/12/11 00:00:08;;;;;;;47.80;26.48;;;-1.40;26.20;;;;;;7369391;19;20015;-79
2022/12/11 00:02:41;;;;;;;49.65;26.02;;;-1.40;25.70;;;;;;7391973;19;20034;-78
2022/12/11 00:05:11;;;;;;;41.65;23.55;;;-1.30;25.40;;;;;;7371192;19;20083;-79
2022/12/11 00:07:41;;;;;;;44.75;23.95;;;-1.40;24.60;;;;;;7369597;19;20011;-78
2022/12/11 00:10:11;;;;;;;41.85;24.52;;;-1.40;24.60;;;;;;7368816;19;20506;-78
2022/12/11 00:12:41;;;;;;;45.08;25.10;;;-1.40;24.50;;;;;;7369707;19;20010;-79
2022/12/11 00:15:12;;;;;;;45.38;23.80;;;-1.40;24.00;;;;;;7369756;19;20011;-79
2022/12/11 00:17:45;;;;;;;43.33;23.15;;;-1.40;23.80;;;;;;7389699;19;19999;-79
2022/12/11 00:20:14;;;;;;;40.40;22.38;;;-1.50;22.30;;;;;;7367868;19;20509;-78
2022/12/11 00:22:45;;;;;;;38.95;22.40;;;-1.50;23.30;;;;;;7368749;19;20006;-79
2022/12/11 00:25:15;;;;;;;40.50;23.42;;;-1.50;23.60;;;;;;7368641;19;20006;-79
2022/12/11 00:27:46;;;;;;;42.42;23.98;;;-1.50;23.70;;;;;;7369037;19;20220;-79
2022/12/11 00:30:16;;;;;;;39.45;22.27;;;-1.60;23.60;;;;;;7367679;19;20074;-79
2022/12/11 00:32:49;;;;;;;40.90;23.48;;;-1.60;23.70;;;;;;7382506;19;20017;-80
2022/12/11 00:35:19;;;;;;;43.83;23.92;;;-1.50;23.80;;;;;;7389294;19;20090;-78
2022/12/11 00:37:49;;;;;;;39.97;23.33;;;-1.50;23.90;;;;;;7367729;19;20006;-78
2022/12/11 00:40:19;;;;;;;40.92;21.88;;;-1.40;23.20;;;;;;7368059;19;20007;-78
2022/12/11 00:42:48;;;;;;;43.20;23.08;;;-1.40;23.30;;;;;;7369061;19;20485;-79
2022/12/11 00:45:18;;;;;;;38.83;21.58;;;-1.30;22.70;;;;;;7369098;19;20010;-79
2022/12/11 00:47:51;;;;;;;37.60;20.95;;;-1.20;22.50;;;;;;7368241;19;20026;-79
2022/12/11 00:50:21;;;;;;;35.90;19.90;;;-1.20;22.00;;;;;;7386744;19;20011;-79
2022/12/11 00:52:50;;;;;;;36.38;20.45;;;-1.30;20.60;;;;;;7367996;19;20014;-78
2022/12/11 00:55:20;;;;;;;38.75;20.83;;;-1.20;20.40;;;;;;7367554;19;20006;-78
2022/12/11 00:57:53;;;;;;;34.38;19.67;;;-1.20;19.80;;;;;;7375008;19;20026;-78
2022/12/11 01:00:23;;;;;;;34.92;19.42;;;-1.10;19.20;;;;;;7372967;19;20014;-79
2022/12/11 01:02:55;;;;;;;30.98;18.15;;;-1.10;19.20;;;;;;7375498;19;20011;-78
2022/12/11 01:05:25;;;;;;;31.70;18.92;;;-1.10;17.90;;;;;;7397054;19;20479;-78
2022/12/11 01:07:55;;;;;;;31.02;18.30;;;-1.10;17.70;;;;;;7374744;19;20482;-79
2022/12/11 01:10:23;;;;;;;34.33;18.77;;;-1.10;17.30;;;;;;7373702;19;20034;-79
2022/12/11 01:12:57;;;;;;;30.02;17.50;;;-1.00;16.90;;;;;;7374013;19;20030;-79
2022/12/11 01:15:29;;;;;;;31.50;19.02;;;-1.00;15.80;;;;;;7374924;19;20102;-79
2022/12/11 01:18:02;;;;;;;30.60;18.10;;;-1.00;14.70;;;;;;7373722;19;20015;-78
2022/12/11 01:20:32;;;;;;;31.15;18.27;;;-1.00;15.70;;;;;;7395902;19;20014;-79
2022/12/11 01:23:02;;;;;;;30.80;19.20;;;-1.00;14.80;;;;;;7374284;19;20478;-78
2022/12/11 01:25:32;;;;;;;30.67;18.63;;;-1.00;15.10;;;;;;7374737;19;20026;-79
2022/12/11 01:28:02;;;;;;;30.85;17.98;;;-0.90;16.40;;;;;;7373928;19;20010;-79
2022/12/11 01:30:31;;;;;;;33.17;19.13;;;-1.00;14.70;;;;;;7373705;19;20013;-79
2022/12/11 01:33:04;;;;;;;30.70;17.45;;;-0.90;15.20;;;;;;7374680;19;20031;-79
2022/12/11 01:35:35;;;;;;;30.60;18.00;;;-0.90;15.10;;;;;;7395119;19;20017;-78
2022/12/11 01:38:05;;;;;;;32.90;19.85;;;-0.80;14.70;;;;;;7372972;19;20017;-79
2022/12/11 01:40:34;;;;;;;31.38;17.70;;;-0.80;14.30;;;;;;7373394;19;20030;-79
2022/12/11 01:43:04;;;;;;;31.40;18.17;;;-0.80;13.90;;;;;;7374352;19;20006;-79
2022/12/11 01:45:39;;;;;;;27.65;16.10;;;-0.80;13.30;;;;;;7372827;19;20528;-78
2022/12/11 01:48:15;;;;;;;26.77;15.73;;;-0.80;12.40;;;;;;7373846;19;20022;-79
2022/12/11 01:50:48;;;;;;;27.15;16.38;;;-0.90;12.40;;;;;;7395407;19;20010;-79
2022/12/11 01:53:22;;;;;;;27.27;16.80;;;-0.80;13.00;;;;;;7371995;19;20039;-79
2022/12/11 01:55:55;;;;;;;29.27;16.70;;;-0.80;13.10;;;;;;7373493;19;20038;-78
2022/12/11 01:58:28;;;;;;;27.10;16.50;;;-0.90;12.80;;;;;;7371306;19;20007;-79
2022/12/11 02:00:59;;;;;;;27.63;15.73;;;-0.90;12.80;;;;;;7373868;19;20007;-79
2022/12/11 02:03:32;;;;;;;30.23;17.83;;;-0.90;12.50;;;;;;7373035;19;20412;-79
2022/12/11 02:06:01;;;;;;;29.25;15.88;;;-0.90;12.40;;;;;;7373757;19;20015;-78
2022/12/11 02:08:31;;;;;;;29.63;17.42;;;-0.80;12.30;;;;;;7391042;19;20014;-79
2022/12/11 02:11:08;;;;;;;28.42;16.67;;;-0.90;12.00;;;;;;7372727;19;20014;-79
2022/12/11 02:13:43;;;;;;;28.40;16.20;;;-0.80;12.30;;;;;;7372435;19;20021;-78
2022/12/11 02:16:22;;;;;;;28.27;15.60;;;-0.80;12.00;;;;;;7373755;19;20006;-78
2022/12/11 02:19:02;;;;;;;27.45;16.33;;;-0.80;12.40;;;;;;7371370;19;20010;-79
2022/12/11 02:21:39;;;;;;;26.70;16.58;;;-0.70;12.50;;;;;;7372228;19;20010;-79
2022/12/11 02:24:28;;;;;;;27.80;16.23;;;-0.60;12.20;;;;;;7372375;19;20021;-79
2022/12/11 02:27:12;;;;;;;26.88;15.93;;;-0.70;11.30;;;;;;7372723;19;20030;-78
2022/12/11 02:29:52;;;;;;;27.70;16.38;;;-0.60;11.00;;;;;;7392437;19;20047;-79
2022/12/11 02:32:27;;;;;;;27.63;17.33;;;-0.50;10.20;;;;;;7371765;19;20006;-79
2022/12/11 02:35:04;;;;;;;32.67;18.17;;;-0.50;10.70;;;;;;7372099;19;20010;-78
2022/12/11 02:37:37;;;;;;;33.83;19.30;;;-0.50;10.30;;;;;;7372514;19;20083;-78
2022/12/11 02:40:12;;;;;;;36.33;21.15;;;-0.50;11.80;;;;;;7371614;19;20010;-79
2022/12/11 02:42:44;;;;;;;35.33;19.80;;;-0.60;12.00;;;;;;7372347;19;20011;-79
2022/12/11 02:45:17;;;;;;;34.00;19.88;;;-0.60;12.20;;;;;;7373228;19;20023;-79
2022/12/11 02:47:49;;;;;;;32.75;18.70;;;-0.60;12.50;;;;;;7373774;19;20018;-79
2022/12/11 02:50:23;;;;;;;31.50;19.20;;;-0.50;13.10;;;;;;7393154;19;20025;-78
2022/12/11 02:52:57;;;;;;;33.72;19.52;;;-0.50;13.40;;;;;;7372888;19;20021;-79
2022/12/11 02:55:30;;;;;;;35.28;20.48;;;-0.60;12.50;;;;;;7372848;19;20006;-78
2022/12/11 02:58:06;;;;;;;33.58;19.48;;;-0.60;12.50;;;;;;7371304;19;20006;-78
2022/12/11 03:00:39;;;;;;;33.60;19.83;;;-0.50;13.30;;;;;;7371489;19;20041;-79
2022/12/11 03:03:09;;;;;;;37.35;21.05;;;-0.50;12.90;;;;;;7384564;19;20039;-79
2022/12/11 03:05:39;;;;;;;35.03;20.35;;;-0.50;12.90;;;;;;7426206;19;20268;-78
2022/12/11 03:08:10;;;;;;;36.85;19.92;;;-0.50;13.30;;;;;;7406805;19;20019;-79
2022/12/11 03:10:40;;;;;;;39.88;19.52;;;-0.60;12.70;;;;;;7382714;19;20010;-79
2022/12/11 03:13:10;;;;;;;33.10;18.70;;;-0.60;13.50;;;;;;7374193;19;20010;-78
2022/12/11 03:15:52;;;;;;;33.90;19.15;;;-0.60;14.00;;;;;;7372590;19;20017;-79
2022/12/11 03:18:30;;;;;;;32.17;20.25;;;-0.60;13.50;;;;;;7370030;19;20010;-79
2022/12/11 03:21:08;;;;;;;33.20;18.42;;;-0.80;14.00;;;;;;7371354;19;20032;-79
2022/12/11 03:23:44;;;;;;;33.70;20.25;;;-0.80;14.90;;;;;;7392334;19;20038;-79
2022/12/11 03:26:16;;;;;;;33.15;18.90;;;-0.80;15.90;;;;;;7372064;19;20016;-78
2022/12/11 03:28:49;;;;;;;34.63;20.08;;;-0.80;15.90;;;;;;7368361;19;20113;-79
2022/12/11 03:31:27;;;;;;;35.22;20.10;;;-0.70;15.90;;;;;;7370617;19;20014;-79
2022/12/11 03:34:02;;;;;;;39.42;20.85;;;-0.70;15.50;;;;;;7369376;19;20133;-79
2022/12/11 03:36:36;;;;;;;36.20;21.00;;;-0.80;15.10;;;;;;7368854;19;20019;-79
2022/12/11 03:39:12;;;;;;;39.35;20.58;;;-0.70;16.00;;;;;;7369280;19;20504;-79
2022/12/11 03:41:44;;;;;;;38.92;21.25;;;-0.70;16.00;;;;;;7391031;19;20018;-79
2022/12/11 03:44:15;;;;;;;37.65;19.85;;;-0.60;16.00;;;;;;7370565;19;20450;-79
2022/12/11 03:46:49;;;;;;;36.38;20.10;;;-0.60;16.00;;;;;;7368645;19;20018;-79
2022/12/11 03:49:24;;;;;;;36.35;20.65;;;-0.60;16.00;;;;;;7366975;19;20006;-79
2022/12/11 03:51:58;;;;;;;35.22;20.02;;;-0.70;15.10;;;;;;7369350;19;20098;-79
2022/12/11 03:54:28;;;;;;;36.53;20.83;;;-0.70;15.90;;;;;;7368977;19;20074;-78
2022/12/11 03:57:02;;;;;;;31.17;19.00;;;-0.70;16.00;;;;;;7369523;19;20027;-79
2022/12/11 03:59:32;;;;;;;33.53;20.05;;;-0.70;16.00;;;;;;7388870;19;20010;-79
2022/12/11 04:02:09;;;;;;;39.50;21.73;;;-0.70;16.00;;;;;;7367376;19;20486;-79
2022/12/11 04:04:40;;;;;;;36.55;21.38;;;-0.70;16.00;;;;;;7368805;19;20081;-79
2022/12/11 04:07:10;;;;;;;37.47;20.90;;;-0.70;16.40;;;;;;7369980;19;20048;-79
2022/12/11 04:09:40;;;;;;;38.15;22.55;;;-0.70;16.90;;;;;;7367489;19;20007;-79
2022/12/11 04:12:10;;;;;;;40.63;22.88;;;-0.70;17.60;;;;;;7369893;19;20042;-80
2022/12/11 04:25:44;;;;;;;38.72;22.50;;;-0.70;18.00;;;;;;7368498;19;20013;-78
2022/12/11 04:28:14;;;;;;;37.80;21.30;;;-0.80;17.10;;;;;;7369141;19;20017;-78
2022/12/11 04:30:50;;;;;;;39.75;21.13;;;-0.80;17.50;;;;;;7369477;19;20018;-79
2022/12/11 04:33:22;;;;;;;37.20;21.55;;;-0.80;17.80;;;;;;7374982;19;20030;-78
2022/12/11 04:35:52;;;;;;;33.55;19.40;;;-0.80;16.70;;;;;;7375739;19;20033;-79
2022/12/11 04:38:22;;;;;;;37.35;21.30;;;-1.00;15.80;;;;;;7395552;19;20011;-78
2022/12/11 04:40:58;;;;;;;38.20;20.75;;;-1.00;17.20;;;;;;7375222;19;20034;-79
2022/12/11 04:43:29;;;;;;;37.88;20.67;;;-1.00;18.10;;;;;;7374565;19;20007;-79
2022/12/11 04:46:06;;;;;;;36.60;20.42;;;-1.00;18.70;;;;;;7375740;19;20015;-79
2022/12/11 04:48:39;;;;;;;35.53;19.92;;;-0.90;19.10;;;;;;7374173;19;20037;-79
2022/12/11 04:51:10;;;;;;;36.70;20.37;;;-1.00;18.00;;;;;;7376590;19;20011;-78
2022/12/11 04:53:40;;;;;;;36.88;21.25;;;-1.10;17.50;;;;;;7395774;19;20403;-81
2022/12/11 04:56:12;;;;;;;37.05;20.02;;;-1.10;18.40;;;;;;7376048;19;20010;-79
2022/12/11 04:58:42;;;;;;;34.92;19.42;;;-1.10;18.40;;;;;;7372907;19;20358;-79
2022/12/11 05:01:13;;;;;;;36.20;20.88;;;-1.10;19.10;;;;;;7374901;19;20003;-78
2022/12/11 05:03:46;;;;;;;34.80;20.13;;;-1.10;18.80;;;;;;7375123;19;20010;-79
2022/12/11 05:06:16;;;;;;;36.50;20.67;;;-1.00;18.90;;;;;;7375956;19;20005;-79
2022/12/11 05:08:47;;;;;;;37.08;21.50;;;-1.20;18.90;;;;;;7393952;19;20011;-80
2022/12/11 05:11:17;;;;;;;37.70;22.85;;;-1.20;19.20;;;;;;7397423;19;20014;-79
2022/12/11 05:13:47;;;;;;;41.95;23.70;;;-1.30;20.70;;;;;;7374318;19;20006;-78
2022/12/11 05:16:18;;;;;;;45.25;24.67;;;-1.30;22.40;;;;;;7375534;19;20429;-79
2022/12/11 05:18:50;;;;;;;44.85;24.30;;;-1.40;22.60;;;;;;7373040;19;20478;-78
2022/12/11 05:21:20;;;;;;;48.97;26.77;;;-1.40;23.20;;;;;;7371663;19;20002;-78
2022/12/11 05:23:50;;;;;;;46.13;25.63;;;-1.50;23.80;;;;;;7373792;19;20010;-79
2022/12/11 05:26:22;;;;;;;51.85;26.90;;;-1.50;24.40;;;;;;7394526;19;20010;-78
2022/12/11 05:28:54;;;;;;;48.83;26.33;;;-1.50;24.70;;;;;;7372048;19;20041;-78
2022/12/11 05:31:26;;;;;;;50.00;27.00;;;-1.60;25.20;;;;;;7373296;19;20010;-78
2022/12/11 05:33:59;;;;;;;53.22;29.65;;;-1.60;25.60;;;;;;7373897;19;20012;-78
2022/12/11 05:36:30;;;;;;;48.33;26.50;;;-1.70;25.90;;;;;;7373527;19;20006;-78
2022/12/11 05:39:01;;;;;;;51.72;27.60;;;-1.70;26.10;;;;;;7372085;19;20029;-79
2022/12/11 05:41:33;;;;;;;49.35;26.08;;;-1.80;26.70;;;;;;7392645;19;20010;-79
2022/12/11 05:44:02;;;;;;;47.42;27.05;;;-1.80;27.20;;;;;;7371014;19;20477;-78
2022/12/11 05:46:32;;;;;;;50.15;26.25;;;-1.80;27.60;;;;;;7372983;19;20034;-79
2022/12/11 05:49:05;;;;;;;50.03;26.60;;;-1.80;28.00;;;;;;7372216;19;20019;-79
2022/12/11 05:51:35;;;;;;;52.42;26.90;;;-1.80;27.80;;;;;;7373266;19;20494;-79
2022/12/11 05:54:06;;;;;;;49.55;27.73;;;-1.90;28.20;;;;;;7371625;19;20022;-79
2022/12/11 05:56:37;;;;;;;51.70;27.05;;;-1.80;28.70;;;;;;7395601;19;20025;-79
2022/12/11 05:59:08;;;;;;;45.92;25.92;;;-1.80;28.70;;;;;;7371678;19;20097;-79
2022/12/11 06:01:40;;;;;;;49.78;26.65;;;-1.80;28.70;;;;;;7373105;19;20014;-79
2022/12/11 06:04:14;;;;;;;54.38;28.73;;;-1.90;28.50;;;;;;7374007;19;20026;-79
2022/12/11 06:06:44;;;;;;;49.05;26.42;;;-1.90;28.70;;;;;;7374055;19;20015;-80
2022/12/11 06:09:16;;;;;;;53.25;26.67;;;-1.90;28.70;;;;;;7373734;19;20470;-78
2022/12/11 06:11:45;;;;;;;47.95;25.73;;;-1.90;28.70;;;;;;7396051;19;20021;-78
2022/12/11 06:14:15;;;;;;;57.72;28.30;;;-1.90;28.60;;;;;;7373926;19;20012;-78
2022/12/11 06:16:45;;;;;;;46.72;25.90;;;-1.90;28.70;;;;;;7372535;19;20011;-79
2022/12/11 06:19:19;;;;;;;44.75;24.67;;;-1.90;28.70;;;;;;7384557;19;20017;-78
2022/12/11 06:21:48;;;;;;;50.07;26.40;;;-1.80;28.70;;;;;;7406970;19;20010;-78
2022/12/11 06:24:18;;;;;;;49.58;24.85;;;-1.90;28.20;;;;;;7408838;19;20277;-77
2022/12/11 06:26:48;;;;;;;48.05;24.55;;;-1.80;28.70;;;;;;7382766;19;20045;-78
2022/12/11 06:29:18;;;;;;;47.22;25.42;;;-1.80;27.60;;;;;;7393867;19;20486;-79
2022/12/11 06:31:48;;;;;;;48.80;25.80;;;-1.80;27.60;;;;;;7373493;19;20038;-78
2022/12/11 06:34:20;;;;;;;51.25;25.23;;;-1.70;27.80;;;;;;7373501;19;20006;-79
2022/12/11 06:36:50;;;;;;;52.22;26.52;;;-1.70;27.30;;;;;;7373144;19;20490;-78
2022/12/11 06:39:20;;;;;;;45.47;25.27;;;-1.70;26.50;;;;;;7371672;19;20086;-77
2022/12/11 06:41:49;;;;;;;44.60;25.13;;;-1.70;26.20;;;;;;7370552;19;20011;-79
2022/12/11 06:44:19;;;;;;;48.38;25.58;;;-1.70;25.00;;;;;;7393990;19;20018;-78
2022/12/11 06:46:49;;;;;;;45.90;25.48;;;-1.70;25.40;;;;;;7372288;19;20106;-78
2022/12/11 06:49:22;;;;;;;44.47;25.17;;;-1.70;24.70;;;;;;7370547;19;20042;-78
2022/12/11 06:51:52;;;;;;;47.95;25.35;;;-1.70;24.10;;;;;;7371958;19;20022;-78
2022/12/11 06:54:21;;;;;;;49.67;26.05;;;-1.60;24.40;;;;;;7370881;19;20014;-78
2022/12/11 06:56:51;;;;;;;48.30;25.92;;;-1.60;23.70;;;;;;7371297;19;20006;-78
2022/12/11 06:59:21;;;;;;;43.97;23.70;;;-1.50;24.60;;;;;;7390843;19;20034;-78
2022/12/11 07:01:51;;;;;;;46.33;25.58;;;-1.40;23.60;;;;;;7370368;19;20007;-78
2022/12/11 07:04:26;;;;;;;43.85;23.50;;;-1.20;23.30;;;;;;7370637;19;20010;-78
2022/12/11 07:06:56;;;;;;;42.88;23.52;;;-1.20;22.50;;;;;;7371836;19;20583;-78
2022/12/11 07:09:25;;;;;;;43.92;23.42;;;-1.20;21.80;;;;;;7369764;19;20029;-78
2022/12/11 07:11:55;;;;;;;43.17;23.98;;;-1.20;19.90;;;;;;7370991;19;20532;-78
2022/12/11 07:14:25;;;;;;;44.25;23.33;;;-1.20;19.90;;;;;;7392492;19;20010;-78
2022/12/11 07:16:55;;;;;;;41.78;23.63;;;-1.10;20.30;;;;;;7371171;19;20014;-79
2022/12/11 07:19:28;;;;;;;40.45;22.48;;;-1.10;20.50;;;;;;7368523;19;20018;-76
2022/12/11 07:21:58;;;;;;;42.35;23.23;;;-1.10;19.60;;;;;;7371766;19;20414;-77
2022/12/11 07:24:28;;;;;;;38.38;21.92;;;-1.00;19.20;;;;;;7370444;19;20479;-78
2022/12/11 07:26:58;;;;;;;42.72;22.65;;;-1.00;18.70;;;;;;7371078;19;20038;-78
2022/12/11 07:29:27;;;;;;;41.78;22.08;;;-1.00;18.50;;;;;;7390415;19;20011;-77
2022/12/11 07:31:57;;;;;;;37.58;21.60;;;-1.00;17.40;;;;;;7370391;19;20053;-78
2022/12/11 07:34:30;;;;;;;41.03;21.63;;;-1.10;18.30;;;;;;7370862;19;20108;-77
2022/12/11 07:37:00;;;;;;;40.35;21.65;;;-1.00;18.20;;;;;;7370709;19;20019;-78
2022/12/11 07:39:30;;;;;;;45.25;23.00;;;-1.00;17.70;;;;;;7370432;19;20026;-78
2022/12/11 07:41:59;;;;;;;42.97;22.50;;;-1.00;18.10;;;;;;7369259;19;20081;-77
2022/12/11 07:44:29;;;;;;;46.55;22.27;;;-0.90;17.50;;;;;;7391990;19;20513;-77
2022/12/11 07:46:59;;;;;;;44.92;23.45;;;-0.90;17.80;;;;;;7368146;19;20166;-78
2022/12/11 07:49:32;;;;;;;41.83;22.17;;;-0.90;18.20;;;;;;7367929;19;20031;-78
2022/12/11 07:52:05;;;;;;;41.58;22.60;;;-0.90;18.50;;;;;;7370177;19;20010;-78
2022/12/11 07:54:35;;;;;;;46.08;23.05;;;-1.00;17.90;;;;;;7369525;19;20007;-77
2022/12/11 07:57:05;;;;;;;44.17;23.83;;;-1.00;19.10;;;;;;7369187;19;20009;-78
2022/12/11 07:59:43;;;;;;;47.25;24.33;;;-1.00;19.40;;;;;;7389631;19;20006;-77
2022/12/11 08:02:13;;;;;;;45.35;24.23;;;-0.90;20.10;;;;;;7368714;19;20003;-77
2022/12/11 08:04:45;;;;;;;44.95;23.17;;;-0.90;20.20;;;;;;7368873;19;20014;-78
2022/12/11 08:07:15;;;;;;;48.97;24.67;;;-1.00;20.70;;;;;;7375462;19;20006;-78
2022/12/11 08:09:45;;;;;;;46.83;23.88;;;-1.10;21.00;;;;;;7375510;19;20012;-77
2022/12/11 08:12:15;;;;;;;45.88;23.83;;;-1.20;19.70;;;;;;7377755;19;20089;-77
2022/12/11 08:14:45;;;;;;;47.90;23.60;;;-1.20;21.70;;;;;;7399184;19;20014;-77
2022/12/11 08:17:14;;;;;;;50.08;23.17;;;-1.20;22.50;;;;;;7376486;19;20014;-77
2022/12/11 08:19:47;;;;;;;50.25;25.25;;;-1.20;22.50;;;;;;7374025;19;20015;-78
2022/12/11 08:22:17;;;;;;;47.33;25.73;;;-1.20;23.10;;;;;;7375303;19;20021;-77
2022/12/11 08:24:48;;;;;;;47.33;24.88;;;-1.30;23.30;;;;;;7376156;19;20035;-78
2022/12/11 08:27:17;;;;;;;48.33;25.90;;;-1.10;24.50;;;;;;7377303;19;20009;-78
2022/12/11 08:29:47;;;;;;;51.85;25.52;;;-1.10;25.70;;;;;;7385728;19;20010;-78
2022/12/11 08:32:17;;;;;;;47.10;25.23;;;-1.10;25.20;;;;;;7397991;19;20500;-77
2022/12/11 08:34:52;;;;;;;53.95;26.20;;;-1.00;25.50;;;;;;7375812;19;20018;-76
2022/12/11 08:37:22;;;;;;;47.28;23.80;;;-0.90;25.90;;;;;;7375461;19;20002;-77
2022/12/11 08:39:52;;;;;;;49.60;24.50;;;-0.70;24.40;;;;;;7374274;19;20035;-77
2022/12/11 08:42:22;;;;;;;49.35;23.83;;;-0.60;23.40;;;;;;7373847;19;20027;-77
2022/12/11 08:44:52;;;;;;;43.22;22.90;;;-0.40;23.60;;;;;;7375947;19;20011;-77
2022/12/11 08:47:22;;;;;;;46.40;23.70;;;-0.50;21.30;;;;;;7396670;19;20014;-77
2022/12/11 08:49:55;;;;;;;48.65;24.13;;;-0.60;20.60;;;;;;7372967;19;20014;-77
2022/12/11 08:52:25;;;;;;;42.97;23.38;;;-0.50;21.80;;;;;;7374768;19;20699;-76
2022/12/11 08:54:55;;;;;;;43.30;21.67;;;-0.50;21.00;;;;;;7378012;19;20035;-76
2022/12/11 08:57:25;;;;;;;43.28;22.23;;;-0.40;21.40;;;;;;7374520;19;20034;-76
2022/12/11 08:59:55;;;;;;;41.50;20.85;;;-0.40;20.30;;;;;;7373046;19;20983;-76
2022/12/11 09:02:25;;;;;;;33.65;19.23;;;-0.40;18.50;;;;;;7394539;19;20086;-76
2022/12/11 09:04:57;;;;;;;39.50;20.55;;;-0.40;18.70;;;;;;7374559;19;20086;-77
2022/12/11 09:07:28;;;;;;;36.72;20.17;;;-0.40;18.80;;;;;;7373650;19;20078;-76
2022/12/11 09:09:57;;;;;;;42.42;22.13;;;-0.40;18.70;;;;;;7374259;19;20077;-76
2022/12/11 09:12:27;;;;;;;41.30;22.55;;;-0.20;18.90;;;;;;7373609;19;20006;-76
2022/12/11 09:14:57;;;;;;;41.53;22.92;;;-0.10;18.30;;;;;;7374812;19;20355;-76
2022/12/11 09:17:27;;;;;;;38.42;21.92;;;-0.30;16.20;;;;;;7396765;19;20021;-76
2022/12/11 09:19:59;;;;;;;35.72;20.63;;;-0.30;16.20;;;;;;7373092;19;20014;-76
2022/12/11 09:22:29;;;;;;;36.53;19.83;;;-0.20;15.30;;;;;;7374939;19;20021;-76
2022/12/11 09:24:59;;;;;;;34.97;19.42;;;-0.30;14.40;;;;;;7376645;19;20010;-76
2022/12/11 09:27:29;;;;;;;33.88;18.00;;;-0.30;14.40;;;;;;7376821;19;20014;-76
2022/12/11 09:29:59;;;;;;;32.05;17.15;;;-0.20;13.40;;;;;;7372475;19;20034;-76
2022/12/11 09:32:29;;;;;;;35.95;18.13;;;-0.40;11.10;;;;;;7395982;19;20081;-75
2022/12/11 09:35:01;;;;;;;36.10;20.48;;;-0.50;11.30;;;;;;7395205;19;20017;-76
2022/12/11 09:37:31;;;;;;;31.15;15.88;;;-0.30;12.70;;;;;;7409061;19;20006;-76
2022/12/11 09:40:01;;;;;;;28.63;16.38;;;-0.10;11.50;;;;;;7405672;19;20007;-72
2022/12/11 09:42:47;;;;;;;28.90;15.68;;;-0.10;10.40;;;;;;7376561;19;20086;-76
2022/12/11 09:45:18;;;;;;;28.35;16.63;;;-0.10;7.60;;;;;;7376083;19;20011;-76
2022/12/11 09:47:51;;;;;;;32.65;17.38;;;0.00;7.80;;;;;;7376370;19;20339;-76
2022/12/11 09:50:27;;;;;;;32.25;17.60;;;0.10;6.50;;;;;;7391988;19;20014;-76
2022/12/11 09:53:07;;;;;;;33.35;18.35;;;0.00;6.40;;;;;;7372925;19;20101;-76
2022/12/11 09:55:43;;;;;;;32.03;18.27;;;0.00;6.50;;;;;;7373231;19;20339;-76
2022/12/11 09:58:21;;;;;;;33.53;19.20;;;0.10;8.60;;;;;;7374097;19;20430;-77
2022/12/11 10:00:59;;;;;;;37.42;18.58;;;0.00;6.00;;;;;;7373464;19;20074;-76
2022/12/11 10:03:48;;;;;;;40.58;21.23;;;0.10;7.30;;;;;;7372536;19;20006;-76
2022/12/11 10:06:27;;;;;;;38.88;22.08;;;0.20;7.60;;;;;;7374036;19;20078;-75
2022/12/11 10:09:07;;;;;;;47.20;25.58;;;-0.30;9.20;;;;;;7374562;19;20082;-77
2022/12/11 10:11:56;;;;;;;43.38;23.88;;;-0.30;12.70;;;;;;7397440;19;20014;-76
2022/12/11 10:14:37;;;;;;;42.72;22.38;;;-0.30;11.90;;;;;;7376629;19;20014;-77
2022/12/11 10:17:13;;;;;;;41.17;22.42;;;-0.40;12.30;;;;;;7375188;19;20007;-77
2022/12/11 10:19:44;;;;;;;39.95;21.85;;;-0.40;14.10;;;;;;7372512;19;20115;-77
2022/12/11 10:22:22;;;;;;;45.28;22.45;;;-0.50;15.20;;;;;;7372987;19;20011;-75
2022/12/11 10:24:58;;;;;;;37.75;21.30;;;-0.40;13.10;;;;;;7372044;19;20010;-76
2022/12/11 10:27:44;;;;;;;42.55;21.88;;;-0.50;13.30;;;;;;7373330;19;20059;-76
2022/12/11 10:30:18;;;;;;;46.95;24.05;;;-0.20;12.80;;;;;;7369563;19;20006;-77
2022/12/11 10:32:54;;;;;;;43.75;22.92;;;-0.10;12.60;;;;;;7382465;19;20052;-76
2022/12/11 10:35:33;;;;;;;38.75;21.52;;;0.10;12.00;;;;;;7391436;19;20007;-75
2022/12/11 10:38:15;;;;;;;41.08;23.00;;;0.00;10.30;;;;;;7371194;19;20017;-76
2022/12/11 10:40:47;;;;;;;39.78;21.48;;;0.00;11.00;;;;;;7374535;19;20018;-76
2022/12/11 10:43:17;;;;;;;40.05;20.42;;;0.00;10.40;;;;;;7372796;19;20002;-77
2022/12/11 10:45:55;;;;;;;38.58;21.67;;;-0.30;9.60;;;;;;7372185;19;20710;-76
2022/12/11 10:48:25;;;;;;;41.15;21.45;;;0.00;11.00;;;;;;7369563;19;20015;-76
2022/12/11 10:51:01;;;;;;;35.85;20.77;;;-0.10;8.50;;;;;;7371250;19;20022;-76
2022/12/11 10:53:35;;;;;;;39.40;20.58;;;-0.30;7.20;;;;;;7391691;19;20078;-76
2022/12/11 10:56:06;;;;;;;36.45;19.98;;;-0.10;9.20;;;;;;7370589;19;20006;-75
2022/12/11 10:58:41;;;;;;;32.67;18.70;;;-0.10;9.30;;;;;;7370562;19;20350;-76
2022/12/11 11:01:15;;;;;;;36.53;18.38;;;0.10;8.60;;;;;;7374877;19;20092;-76
2022/12/11 11:03:56;;;;;;;35.72;17.90;;;0.10;5.60;;;;;;7380085;19;20014;-75
2022/12/11 11:06:27;;;;;;;33.80;18.77;;;-0.10;3.50;;;;;;7370869;19;20026;-76
2022/12/11 11:09:01;;;;;;;35.45;17.65;;;-0.10;3.70;;;;;;7370869;19;20025;-76
2022/12/11 11:11:33;;;;;;;33.30;17.40;;;0.00;4.70;;;;;;7392299;19;20011;-75
2022/12/11 11:14:09;;;;;;;33.28;18.05;;;0.00;4.50;;;;;;7371584;19;20274;-76
2022/12/11 11:16:41;;;;;;;36.28;20.05;;;0.20;5.70;;;;;;7371503;19;20014;-76
2022/12/11 11:19:20;;;;;;;32.45;18.73;;;0.20;4.50;;;;;;7370048;19;20469;-76
2022/12/11 11:21:53;;;;;;;34.92;18.67;;;0.20;3.50;;;;;;7370832;19;20102;-76
2022/12/11 11:24:44;;;;;;;32.72;18.38;;;0.50;4.30;;;;;;7369119;19;20081;-76
2022/12/11 11:27:15;;;;;;;39.85;20.10;;;0.50;2.00;;;;;;7370273;19;20014;-75
2022/12/11 11:29:46;;;;;;;28.90;16.85;;;0.70;2.80;;;;;;7398207;19;20015;-75
2022/12/11 11:32:25;;;;;;;36.40;18.77;;;0.70;2.10;;;;;;7370637;19;20448;-76
2022/12/11 11:34:55;;;;;;;33.63;17.83;;;0.70;1.10;;;;;;7373667;19;20449;-76
2022/12/11 11:37:31;;;;;;;32.13;16.38;;;0.70;1.00;;;;;;7370601;19;20009;-75
2022/12/11 11:40:13;;;;;;;31.02;16.88;;;0.80;1.00;;;;;;7371313;19;20038;-76
2022/12/11 11:42:48;;;;;;;35.03;17.70;;;0.80;1.00;;;;;;7369779;19;20002;-75
2022/12/11 11:45:24;;;;;;;33.85;18.63;;;0.80;1.00;;;;;;7370068;19;20023;-76
2022/12/11 11:48:06;;;;;;;28.90;16.60;;;0.90;1.80;;;;;;7369756;19;20014;-76
2022/12/11 11:50:45;;;;;;;29.23;15.85;;;0.90;1.00;;;;;;7391670;19;20007;-76
2022/12/11 11:53:24;;;;;;;27.88;15.65;;;1.00;1.00;;;;;;7371885;19;20010;-77
2022/12/11 11:56:07;;;;;;;27.45;15.30;;;0.90;1.00;;;;;;7374347;19;20063;-74
2022/12/11 11:58:43;;;;;;;29.67;16.73;;;1.00;1.00;;;;;;7371861;19;20587;-77
2022/12/11 12:01:17;;;;;;;31.52;17.65;;;0.70;1.00;;;;;;7371974;19;20078;-77
2022/12/11 12:03:49;;;;;;;30.48;17.92;;;0.80;1.00;;;;;;7370556;19;20011;-76
2022/12/11 12:06:29;;;;;;;36.40;17.95;;;0.60;1.00;;;;;;7371734;19;20007;-75
2022/12/11 12:09:08;;;;;;;33.63;17.17;;;0.60;1.00;;;;;;7370521;19;20018;-76
2022/12/11 12:11:47;;;;;;;33.78;18.52;;;0.20;1.00;;;;;;7391469;19;20119;-75
2022/12/11 12:14:24;;;;;;;37.97;18.77;;;0.30;1.30;;;;;;7370738;19;20010;-75
2022/12/11 12:17:25;;;;;;;31.85;17.85;;;0.30;1.00;;;;;;7369525;19;20470;-76
2022/12/11 12:20:06;;;;;;;36.80;18.38;;;0.30;1.00;;;;;;7366894;19;20019;-76
2022/12/11 12:23:04;;;;;;;39.72;20.08;;;0.30;2.30;;;;;;7369361;19;20009;-75
2022/12/11 12:25:40;;;;;;;35.13;18.98;;;0.40;2.40;;;;;;7368050;19;20489;-75
2022/12/11 12:28:24;;;;;;;37.33;18.15;;;0.30;1.10;;;;;;7368241;19;20023;-76
2022/12/11 12:31:08;;;;;;;32.88;18.17;;;0.30;1.00;;;;;;7369228;19;20362;-76
2022/12/11 12:33:53;;;;;;;35.58;18.88;;;0.30;1.00;;;;;;7369672;19;20007;-75
2022/12/11 12:36:29;;;;;;;37.80;18.35;;;0.10;1.40;;;;;;7369261;19;20103;-76
2022/12/11 12:39:03;;;;;;;36.40;18.75;;;0.10;2.20;;;;;;7370801;19;20014;-75
2022/12/11 12:41:37;;;;;;;;;;;0.10;3.70;;;;;;7391156;19;20358;-76
2022/12/11 12:44:17;;;;;;;37.22;19.80;;;0.10;2.90;;;;;;7369646;19;19946;-77
2022/12/11 12:47:04;;;;;;;40.92;19.77;;;0.30;4.50;;;;;;7368971;19;20010;-76
2022/12/11 12:49:42;;;;;;;37.22;19.80;;;0.10;2.30;;;;;;7366953;19;20010;-76
2022/12/11 12:52:16;;;;;;;38.58;19.88;;;0.20;3.50;;;;;;7403622;19;20014;-76
2022/12/11 12:55:12;;;;;;;38.15;18.90;;;0.30;4.20;;;;;;7409962;19;20010;-75
2022/12/11 12:57:43;;;;;;;42.00;21.52;;;0.30;3.60;;;;;;7388304;19;20014;-76
2022/12/11 13:00:28;;;;;;;40.55;19.25;;;0.20;3.30;;;;;;7375317;19;20033;-75
2022/12/11 13:02:59;;;;;;;37.13;18.98;;;0.00;1.90;;;;;;7375822;19;20011;-76
2022/12/11 13:05:32;;;;;;;35.72;19.60;;;-0.10;2.70;;;;;;7395537;19;20014;-75
2022/12/11 13:08:04;;;;;;;41.47;19.83;;;0.00;2.10;;;;;;7375410;19;20011;-76
2022/12/11 13:10:36;;;;;;;39.88;19.13;;;0.10;3.70;;;;;;7374837;19;20030;-75